sensor_id;sensor_type;location;lat;lon;timestamp;pressure;altitude;pressure_sealevel;temperature;humidity
7433;BME280;32233;49.500;7.764;2023-01-25T00:00:00;100233.88;;;-0.24;100.00
7433;BME280;32233;49.500;7.764;2023-01-25T00:02:26;100241.97;;;-0.01;100.00
7433;BME280;32233;49.500;7.764;2023-01-25T00:04:53;100236.16;;;-0.34;100.00
7433;BME280;32233;49.500;7.764;2023-01-25T00:07:20;100232.91;;;-0.38;100.00
7433;BME280;32233;49.500;7.764;2023-01-25T00:09:46;100243.41;;;-0.55;100.00
7433;BME280;32233;49.500;7.764;2023-01-25T00:12:13;100238.09;;;-0.38;100.00
7433;BME280;32233;49.500;7.764;2023-01-25T00:14:40;100230.13;;;-0.35;100.00
7433;BME280;32233;49.500;7.764;2023-01-25T00:17:06;100230.47;;;-0.11;100.00
7433;BME280;32233;49.500;7.764;2023-01-25T00:19:33;100227.44;;;-0.33;100.00
7433;BME280;32233;49.500;7.764;2023-01-25T00:21:59;100222.72;;;-0.27;100.00
7433;BME280;32233;49.500;7.764;2023-01-25T00:24:26;100228.31;;;-0.18;100.00
7433;BME280;32233;49.500;7.764;2023-01-25T00:26:53;100219.06;;;-0.38;100.00
7433;BME280;32233;49.500;7.764;2023-01-25T00:29:19;100220.28;;;-0.30;100.00
7433;BME280;32233;49.500;7.764;2023-01-25T00:31:57;100207.34;;;-0.45;100.00
7433;BME280;32233;49.500;7.764;2023-01-25T00:36:57;100203.22;;;-0.34;100.00
7433;BME280;32233;49.500;7.764;2023-01-25T00:39:27;100201.16;;;-0.43;100.00
7433;BME280;32233;49.500;7.764;2023-01-25T00:41:54;100200.53;;;-0.32;100.00
7433;BME280;32233;49.500;7.764;2023-01-25T00:44:21;100195.16;;;-0.29;100.00
7433;BME280;32233;49.500;7.764;2023-01-25T00:46:48;100190.91;;;-0.16;100.00
7433;BME280;32233;49.500;7.764;2023-01-25T00:51:48;100188.28;;;-0.30;100.00
7433;BME280;32233;49.500;7.764;2023-01-25T00:54:15;100189.88;;;-0.58;100.00
7433;BME280;32233;49.500;7.764;2023-01-25T00:56:42;100188.44;;;-0.33;100.00
7433;BME280;32233;49.500;7.764;2023-01-25T00:59:10;100190.88;;;-0.30;100.00
7433;BME280;32233;49.500;7.764;2023-01-25T01:01:38;100184.50;;;-0.24;100.00
7433;BME280;32233;49.500;7.764;2023-01-25T01:04:05;100179.53;;;-0.43;100.00
7433;BME280;32233;49.500;7.764;2023-01-25T01:06:39;100175.47;;;-0.63;100.00
7433;BME280;32233;49.500;7.764;2023-01-25T01:09:10;100180.34;;;-0.57;100.00
7433;BME280;32233;49.500;7.764;2023-01-25T01:11:37;100179.81;;;-0.48;100.00
7433;BME280;32233;49.500;7.764;2023-01-25T01:14:03;100177.81;;;-0.29;100.00
7433;BME280;32233;49.500;7.764;2023-01-25T01:16:30;100172.03;;;-0.34;100.00
7433;BME280;32233;49.500;7.764;2023-01-25T01:18:56;100175.72;;;-0.38;100.00
7433;BME280;32233;49.500;7.764;2023-01-25T01:21:23;100177.31;;;-0.35;100.00
7433;BME280;32233;49.500;7.764;2023-01-25T01:23:50;100178.97;;;-0.48;100.00
7433;BME280;32233;49.500;7.764;2023-01-25T01:26:17;100174.94;;;-0.54;100.00
7433;BME280;32233;49.500;7.764;2023-01-25T01:28:48;100180.47;;;-0.30;100.00
7433;BME280;32233;49.500;7.764;2023-01-25T01:31:19;100178.38;;;-0.54;100.00
7433;BME280;32233;49.500;7.764;2023-01-25T01:34:18;100183.19;;;-0.32;100.00
7433;BME280;32233;49.500;7.764;2023-01-25T01:36:45;100178.97;;;-0.48;100.00
7433;BME280;32233;49.500;7.764;2023-01-25T01:39:12;100177.81;;;-0.59;100.00
7433;BME280;32233;49.500;7.764;2023-01-25T01:41:38;100182.06;;;-0.58;100.00
7433;BME280;32233;49.500;7.764;2023-01-25T01:44:15;100179.94;;;-0.65;100.00
7433;BME280;32233;49.500;7.764;2023-01-25T01:46:50;100185.94;;;-0.35;100.00
7433;BME280;32233;49.500;7.764;2023-01-25T01:49:23;100183.25;;;-0.33;100.00
7433;BME280;32233;49.500;7.764;2023-01-25T01:52:08;100180.78;;;-0.65;100.00
7433;BME280;32233;49.500;7.764;2023-01-25T01:54:42;100185.13;;;-0.65;100.00
7433;BME280;32233;49.500;7.764;2023-01-25T01:57:15;100178.84;;;-0.61;100.00
7433;BME280;32233;49.500;7.764;2023-01-25T01:59:50;100171.63;;;-0.56;100.00
7433;BME280;32233;49.500;7.764;2023-01-25T02:02:19;100165.59;;;-0.42;100.00
7433;BME280;32233;49.500;7.764;2023-01-25T02:04:48;100160.50;;;-0.44;100.00
7433;BME280;32233;49.500;7.764;2023-01-25T02:07:30;100161.63;;;-0.48;100.00
7433;BME280;32233;49.500;7.764;2023-01-25T02:10:01;100159.63;;;-0.59;100.00
7433;BME280;32233;49.500;7.764;2023-01-25T02:12:30;100156.69;;;-0.53;100.00
7433;BME280;32233;49.500;7.764;2023-01-25T02:14:58;100145.81;;;-0.59;100.00
7433;BME280;32233;49.500;7.764;2023-01-25T02:17:33;100149.69;;;-0.66;100.00
7433;BME280;32233;49.500;7.764;2023-01-25T02:20:09;100151.88;;;-0.44;100.00
7433;BME280;32233;49.500;7.764;2023-01-25T02:22:59;100151.88;;;-0.44;100.00
7433;BME280;32233;49.500;7.764;2023-01-25T02:25:27;100143.50;;;-0.50;100.00
7433;BME280;32233;49.500;7.764;2023-01-25T02:27:58;100148.31;;;-0.58;100.00
7433;BME280;32233;49.500;7.764;2023-01-25T02:30:27;100146.47;;;-0.56;100.00
7433;BME280;32233;49.500;7.764;2023-01-25T02:32:54;100144.16;;;-0.60;100.00
7433;BME280;32233;49.500;7.764;2023-01-25T02:35:35;100140.91;;;-0.50;100.00
7433;BME280;32233;49.500;7.764;2023-01-25T02:38:03;100145.72;;;-0.58;100.00
7433;BME280;32233;49.500;7.764;2023-01-25T02:40:35;100152.00;;;-0.62;100.00
7433;BME280;32233;49.500;7.764;2023-01-25T02:43:03;100149.72;;;-0.52;100.00
7433;BME280;32233;49.500;7.764;2023-01-25T02:45:30;100157.47;;;-0.66;100.00
7433;BME280;32233;49.500;7.764;2023-01-25T02:47:57;100155.94;;;-0.55;100.00
7433;BME280;32233;49.500;7.764;2023-01-25T02:50:23;100144.75;;;-0.41;100.00
7433;BME280;32233;49.500;7.764;2023-01-25T02:52:50;100153.09;;;-0.36;100.00
7433;BME280;32233;49.500;7.764;2023-01-25T02:55:17;100153.44;;;-0.42;100.00
7433;BME280;32233;49.500;7.764;2023-01-25T02:57:45;100151.72;;;-0.71;100.00
7433;BME280;32233;49.500;7.764;2023-01-25T03:00:14;100146.03;;;-0.34;100.00
7433;BME280;32233;49.500;7.764;2023-01-25T03:02:42;100148.47;;;-0.45;100.00
7433;BME280;32233;49.500;7.764;2023-01-25T03:05:09;100146.97;;;-0.49;100.00
7433;BME280;32233;49.500;7.764;2023-01-25T03:07:37;100140.72;;;-0.61;100.00
7433;BME280;32233;49.500;7.764;2023-01-25T03:10:04;100141.19;;;-0.54;100.00
7433;BME280;32233;49.500;7.764;2023-01-25T03:12:33;100145.63;;;-0.56;100.00
7433;BME280;32233;49.500;7.764;2023-01-25T03:14:59;100139.56;;;-0.71;100.00
7433;BME280;32233;49.500;7.764;2023-01-25T03:17:26;100133.19;;;-0.65;100.00
7433;BME280;32233;49.500;7.764;2023-01-25T03:19:53;100139.28;;;-0.66;100.00
7433;BME280;32233;49.500;7.764;2023-01-25T03:22:20;100141.38;;;-0.57;100.00
7433;BME280;32233;49.500;7.764;2023-01-25T03:24:48;100143.47;;;-0.64;100.00
7433;BME280;32233;49.500;7.764;2023-01-25T03:27:15;100134.81;;;-0.79;100.00
7433;BME280;32233;49.500;7.764;2023-01-25T03:30:07;100133.25;;;-0.67;100.00
7433;BME280;32233;49.500;7.764;2023-01-25T03:32:34;100134.16;;;-0.38;100.00
7433;BME280;32233;49.500;7.764;2023-01-25T03:35:06;100138.03;;;-0.59;100.00
7433;BME280;32233;49.500;7.764;2023-01-25T03:37:33;100133.09;;;-0.64;100.00
7433;BME280;32233;49.500;7.764;2023-01-25T03:40:02;100133.44;;;-0.70;100.00
7433;BME280;32233;49.500;7.764;2023-01-25T03:42:29;100122.75;;;-0.80;100.00
7433;BME280;32233;49.500;7.764;2023-01-25T03:44:57;100118.38;;;-0.79;100.00
7433;BME280;32233;49.500;7.764;2023-01-25T03:47:24;100126.00;;;-0.76;100.00
7433;BME280;32233;49.500;7.764;2023-01-25T03:49:51;100126.44;;;-0.84;100.00
7433;BME280;32233;49.500;7.764;2023-01-25T03:52:18;100124.47;;;-0.64;100.00
7433;BME280;32233;49.500;7.764;2023-01-25T03:54:45;100122.41;;;-0.73;100.00
7433;BME280;32233;49.500;7.764;2023-01-25T03:57:12;100122.88;;;-0.67;100.00
7433;BME280;32233;49.500;7.764;2023-01-25T03:59:49;100115.22;;;-0.84;100.00
7433;BME280;32233;49.500;7.764;2023-01-25T04:02:16;100118.94;;;-0.88;100.00
7433;BME280;32233;49.500;7.764;2023-01-25T04:04:43;100118.06;;;-0.73;100.00
7433;BME280;32233;49.500;7.764;2023-01-25T04:07:11;100118.88;;;-0.72;100.00
7433;BME280;32233;49.500;7.764;2023-01-25T04:09:39;100122.84;;;-0.81;100.00
7433;BME280;32233;49.500;7.764;2023-01-25T04:12:07;100121.91;;;-0.80;100.00
7433;BME280;32233;49.500;7.764;2023-01-25T04:14:36;100124.53;;;-0.66;100.00
7433;BME280;32233;49.500;7.764;2023-01-25T04:17:14;100124.38;;;-0.63;100.00
7433;BME280;32233;49.500;7.764;2023-01-25T04:20:07;100119.88;;;-0.45;100.00
7433;BME280;32233;49.500;7.764;2023-01-25T04:22:37;100111.88;;;-0.42;100.00
7433;BME280;32233;49.500;7.764;2023-01-25T04:25:05;100118.72;;;-0.69;100.00
7433;BME280;32233;49.500;7.764;2023-01-25T04:27:33;100113.81;;;-0.60;100.00
7433;BME280;32233;49.500;7.764;2023-01-25T04:30:08;100108.78;;;-0.63;100.00
7433;BME280;32233;49.500;7.764;2023-01-25T04:32:36;100106.75;;;-0.58;100.00
7433;BME280;32233;49.500;7.764;2023-01-25T04:35:11;100109.38;;;-0.43;100.00
7433;BME280;32233;49.500;7.764;2023-01-25T04:37:38;100098.78;;;-0.69;100.00
7433;BME280;32233;49.500;7.764;2023-01-25T04:40:05;100099.56;;;-0.83;100.00
7433;BME280;32233;49.500;7.764;2023-01-25T04:42:38;100096.19;;;-0.69;100.00
7433;BME280;32233;49.500;7.764;2023-01-25T04:45:05;100100.81;;;-0.60;100.00
7433;BME280;32233;49.500;7.764;2023-01-25T04:47:33;100093.56;;;-0.69;100.00
7433;BME280;32233;49.500;7.764;2023-01-25T04:50:02;100095.91;;;-0.64;100.00
7433;BME280;32233;49.500;7.764;2023-01-25T04:52:32;100098.06;;;-0.57;100.00
7433;BME280;32233;49.500;7.764;2023-01-25T04:54:59;100099.44;;;-0.65;100.00
7433;BME280;32233;49.500;7.764;2023-01-25T04:57:27;100099.59;;;-0.68;100.00
7433;BME280;32233;49.500;7.764;2023-01-25T04:59:54;100097.19;;;-0.71;100.00
7433;BME280;32233;49.500;7.764;2023-01-25T05:02:22;100091.31;;;-0.75;100.00
7433;BME280;32233;49.500;7.764;2023-01-25T05:04:48;100101.88;;;-0.78;100.00
7433;BME280;32233;49.500;7.764;2023-01-25T05:07:17;100102.94;;;-0.66;100.00
7433;BME280;32233;49.500;7.764;2023-01-25T05:09:44;100096.50;;;-0.89;100.00
7433;BME280;32233;49.500;7.764;2023-01-25T05:12:11;100100.59;;;-0.85;100.00
7433;BME280;32233;49.500;7.764;2023-01-25T05:14:51;100082.69;;;-0.76;100.00
7433;BME280;32233;49.500;7.764;2023-01-25T05:17:19;100088.66;;;-0.59;100.00
7433;BME280;32233;49.500;7.764;2023-01-25T05:19:46;100089.81;;;-0.79;100.00
7433;BME280;32233;49.500;7.764;2023-01-25T05:22:16;100083.09;;;-0.67;100.00
7433;BME280;32233;49.500;7.764;2023-01-25T05:24:47;100074.47;;;-0.68;100.00
7433;BME280;32233;49.500;7.764;2023-01-25T05:27:17;100076.19;;;-0.83;100.00
7433;BME280;32233;49.500;7.764;2023-01-25T05:29:54;100075.06;;;-0.93;100.00
7433;BME280;32233;49.500;7.764;2023-01-25T05:32:32;100067.00;;;-0.88;100.00
7433;BME280;32233;49.500;7.764;2023-01-25T05:34:58;100076.28;;;-0.84;100.00
7433;BME280;32233;49.500;7.764;2023-01-25T05:37:26;100063.97;;;-0.81;100.00
7433;BME280;32233;49.500;7.764;2023-01-25T05:39:59;100061.25;;;-0.79;100.00
7433;BME280;32233;49.500;7.764;2023-01-25T05:42:27;100071.47;;;-0.76;100.00
7433;BME280;32233;49.500;7.764;2023-01-25T05:44:54;100070.09;;;-0.82;100.00
7433;BME280;32233;49.500;7.764;2023-01-25T05:47:22;100069.44;;;-0.71;100.00
7433;BME280;32233;49.500;7.764;2023-01-25T05:49:48;100064.81;;;-0.66;100.00
7433;BME280;32233;49.500;7.764;2023-01-25T05:52:22;100065.41;;;-0.46;100.00
7433;BME280;32233;49.500;7.764;2023-01-25T05:54:50;100069.75;;;-0.61;100.00
7433;BME280;32233;49.500;7.764;2023-01-25T05:57:16;100063.69;;;-0.62;100.00
7433;BME280;32233;49.500;7.764;2023-01-25T05:59:43;100063.78;;;-0.78;100.00
7433;BME280;32233;49.500;7.764;2023-01-25T06:02:13;100058.66;;;-0.79;100.00
7433;BME280;32233;49.500;7.764;2023-01-25T06:04:41;100052.78;;;-0.53;100.00
7433;BME280;32233;49.500;7.764;2023-01-25T06:07:09;100050.53;;;-0.59;100.00
7433;BME280;32233;49.500;7.764;2023-01-25T06:09:36;100046.56;;;-0.64;100.00
7433;BME280;32233;49.500;7.764;2023-01-25T06:12:03;100048.94;;;-0.76;100.00
7433;BME280;32233;49.500;7.764;2023-01-25T06:14:31;100050.91;;;-0.65;100.00
7433;BME280;32233;49.500;7.764;2023-01-25T06:16:59;100046.63;;;-0.66;100.00
7433;BME280;32233;49.500;7.764;2023-01-25T06:19:46;100040.81;;;-0.69;100.00
7433;BME280;32233;49.500;7.764;2023-01-25T06:22:33;100039.78;;;-0.67;100.00
7433;BME280;32233;49.500;7.764;2023-01-25T06:25:00;100043.22;;;-0.52;100.00
7433;BME280;32233;49.500;7.764;2023-01-25T06:27:27;100049.34;;;-0.39;100.00
7433;BME280;32233;49.500;7.764;2023-01-25T06:29:53;100048.13;;;-0.76;100.00
7433;BME280;32233;49.500;7.764;2023-01-25T06:32:20;100045.53;;;-0.47;100.00
7433;BME280;32233;49.500;7.764;2023-01-25T06:34:47;100045.78;;;-0.66;100.00
7433;BME280;32233;49.500;7.764;2023-01-25T06:37:19;100046.84;;;-0.40;100.00
7433;BME280;32233;49.500;7.764;2023-01-25T06:39:48;100049.06;;;-0.63;100.00
7433;BME280;32233;49.500;7.764;2023-01-25T06:42:15;100046.03;;;-0.41;100.00
7433;BME280;32233;49.500;7.764;2023-01-25T06:44:41;100046.00;;;-0.55;100.00
7433;BME280;32233;49.500;7.764;2023-01-25T06:47:08;100054.63;;;-0.69;100.00
7433;BME280;32233;49.500;7.764;2023-01-25T06:49:35;100047.66;;;-0.68;100.00
7433;BME280;32233;49.500;7.764;2023-01-25T06:52:01;100047.44;;;-0.94;100.00
7433;BME280;32233;49.500;7.764;2023-01-25T06:54:28;100047.19;;;-0.75;100.00
7433;BME280;32233;49.500;7.764;2023-01-25T06:56:54;100051.66;;;-0.77;100.00
7433;BME280;32233;49.500;7.764;2023-01-25T06:59:21;100047.56;;;-0.67;100.00
7433;BME280;32233;49.500;7.764;2023-01-25T07:01:47;100046.34;;;-0.76;100.00
7433;BME280;32233;49.500;7.764;2023-01-25T07:04:15;100050.94;;;-0.95;100.00
7433;BME280;32233;49.500;7.764;2023-01-25T07:06:42;100042.25;;;-0.94;100.00
7433;BME280;32233;49.500;7.764;2023-01-25T07:09:10;100052.69;;;-0.95;100.00
7433;BME280;32233;49.500;7.764;2023-01-25T07:11:38;100047.44;;;-0.94;100.00
7433;BME280;32233;49.500;7.764;2023-01-25T07:14:05;100049.03;;;-0.77;100.00
7433;BME280;32233;49.500;7.764;2023-01-25T07:16:32;100050.66;;;-0.90;100.00
7433;BME280;32233;49.500;7.764;2023-01-25T07:19:03;100056.53;;;-0.87;100.00
7433;BME280;32233;49.500;7.764;2023-01-25T07:21:30;100061.63;;;-0.85;100.00
7433;BME280;32233;49.500;7.764;2023-01-25T07:24:02;100055.34;;;-0.81;100.00
7433;BME280;32233;49.500;7.764;2023-01-25T07:26:30;100048.16;;;-0.92;100.00
7433;BME280;32233;49.500;7.764;2023-01-25T07:28:57;100049.50;;;-0.70;100.00
7433;BME280;32233;49.500;7.764;2023-01-25T07:31:25;100057.81;;;-0.94;100.00
7433;BME280;32233;49.500;7.764;2023-01-25T07:33:55;100063.06;;;-1.10;100.00
7433;BME280;32233;49.500;7.764;2023-01-25T07:36:23;100055.00;;;-1.05;100.00
7433;BME280;32233;49.500;7.764;2023-01-25T07:38:54;100061.72;;;-0.87;100.00
7433;BME280;32233;49.500;7.764;2023-01-25T07:41:22;100054.28;;;-0.93;100.00
7433;BME280;32233;49.500;7.764;2023-01-25T07:43:50;100052.97;;;-1.00;100.00
7433;BME280;32233;49.500;7.764;2023-01-25T07:46:28;100051.16;;;-0.84;100.00
7433;BME280;32233;49.500;7.764;2023-01-25T07:48:54;100048.00;;;-0.89;100.00
7433;BME280;32233;49.500;7.764;2023-01-25T07:51:24;100049.09;;;-0.93;100.00
7433;BME280;32233;49.500;7.764;2023-01-25T07:54:00;100051.72;;;-0.79;100.00
7433;BME280;32233;49.500;7.764;2023-01-25T07:56:33;100050.03;;;-0.80;100.00
7433;BME280;32233;49.500;7.764;2023-01-25T07:59:00;100049.66;;;-0.88;100.00
7433;BME280;32233;49.500;7.764;2023-01-25T08:01:30;100045.97;;;-0.84;100.00
7433;BME280;32233;49.500;7.764;2023-01-25T08:04:00;100052.91;;;-0.84;100.00
7433;BME280;32233;49.500;7.764;2023-01-25T08:06:29;100048.78;;;-1.03;100.00
7433;BME280;32233;49.500;7.764;2023-01-25T08:09:13;100042.25;;;-0.80;100.00
7433;BME280;32233;49.500;7.764;2023-01-25T08:11:40;100051.31;;;-0.57;100.00
7433;BME280;32233;49.500;7.764;2023-01-25T08:14:07;100051.81;;;-0.66;100.00
7433;BME280;32233;49.500;7.764;2023-01-25T08:16:34;100045.53;;;-0.62;100.00
7433;BME280;32233;49.500;7.764;2023-01-25T08:19:02;100044.28;;;-0.85;100.00
7433;BME280;32233;49.500;7.764;2023-01-25T08:21:31;100040.31;;;-0.76;100.00
7433;BME280;32233;49.500;7.764;2023-01-25T08:23:59;100050.59;;;-0.89;100.00
7433;BME280;32233;49.500;7.764;2023-01-25T08:26:26;100044.84;;;-0.80;100.00
7433;BME280;32233;49.500;7.764;2023-01-25T08:28:54;100041.38;;;-0.64;100.00
7433;BME280;32233;49.500;7.764;2023-01-25T08:31:26;100038.75;;;-0.64;100.00
7433;BME280;32233;49.500;7.764;2023-01-25T08:33:53;100044.25;;;-0.69;100.00
7433;BME280;32233;49.500;7.764;2023-01-25T08:36:20;100037.28;;;-0.68;100.00
7433;BME280;32233;49.500;7.764;2023-01-25T08:38:56;100030.97;;;-0.50;100.00
7433;BME280;32233;49.500;7.764;2023-01-25T08:41:23;100029.28;;;-0.80;100.00
7433;BME280;32233;49.500;7.764;2023-01-25T08:43:52;100035.03;;;-0.75;100.00
7433;BME280;32233;49.500;7.764;2023-01-25T08:46:20;100035.41;;;-0.81;100.00
7433;BME280;32233;49.500;7.764;2023-01-25T08:48:47;100032.81;;;-0.81;100.00
7433;BME280;32233;49.500;7.764;2023-01-25T08:51:15;100029.78;;;-1.03;100.00
7433;BME280;32233;49.500;7.764;2023-01-25T08:53:42;100030.66;;;-0.74;100.00
7433;BME280;32233;49.500;7.764;2023-01-25T08:56:13;100041.72;;;-0.70;100.00
7433;BME280;32233;49.500;7.764;2023-01-25T08:58:43;100026.94;;;-0.84;100.00
7433;BME280;32233;49.500;7.764;2023-01-25T09:01:12;100034.84;;;-0.86;100.00
7433;BME280;32233;49.500;7.764;2023-01-25T09:03:44;100028.44;;;-0.66;100.00
7433;BME280;32233;49.500;7.764;2023-01-25T09:06:11;100022.88;;;-0.74;100.00
7433;BME280;32233;49.500;7.764;2023-01-25T09:08:39;100017.16;;;-0.65;100.00
7433;BME280;32233;49.500;7.764;2023-01-25T09:11:09;100024.91;;;-0.93;100.00
7433;BME280;32233;49.500;7.764;2023-01-25T09:13:36;100024.78;;;-1.06;100.00
7433;BME280;32233;49.500;7.764;2023-01-25T09:16:08;100030.09;;;-0.79;100.00
7433;BME280;32233;49.500;7.764;2023-01-25T09:18:36;100028.06;;;-0.88;100.00
7433;BME280;32233;49.500;7.764;2023-01-25T09:21:08;100024.03;;;-1.08;100.00
7433;BME280;32233;49.500;7.764;2023-01-25T09:23:36;100028.22;;;-0.91;100.00
7433;BME280;32233;49.500;7.764;2023-01-25T09:26:23;100031.16;;;-1.12;100.00
7433;BME280;32233;49.500;7.764;2023-01-25T09:28:52;100022.81;;;-1.17;100.00
7433;BME280;32233;49.500;7.764;2023-01-25T09:31:19;100031.16;;;-1.12;100.00
7433;BME280;32233;49.500;7.764;2023-01-25T09:33:58;100027.56;;;-1.09;100.00
7433;BME280;32233;49.500;7.764;2023-01-25T09:36:25;100020.88;;;-0.99;100.00
7433;BME280;32233;49.500;7.764;2023-01-25T09:38:51;100020.88;;;-0.99;100.00
7433;BME280;32233;49.500;7.764;2023-01-25T09:46:58;100011.81;;;-1.06;100.00
7433;BME280;32233;49.500;7.764;2023-01-25T09:50:06;100018.78;;;-0.92;100.00
7433;BME280;32233;49.500;7.764;2023-01-25T09:55:21;100020.03;;;-1.14;100.00
7433;BME280;32233;49.500;7.764;2023-01-25T09:57:50;100020.44;;;-1.06;100.00
7433;BME280;32233;49.500;7.764;2023-01-25T10:05:44;100006.53;;;-1.05;100.00
7433;BME280;32233;49.500;7.764;2023-01-25T10:11:15;100005.44;;;-0.86;100.00
7433;BME280;32233;49.500;7.764;2023-01-25T10:13:47;100014.97;;;-1.01;100.00
7433;BME280;32233;49.500;7.764;2023-01-25T10:16:21;100007.13;;;-1.15;100.00
7433;BME280;32233;49.500;7.764;2023-01-25T10:21:43;99995.31;;;-0.91;100.00
7433;BME280;32233;49.500;7.764;2023-01-25T10:27:07;99995.63;;;-0.81;100.00
7433;BME280;32233;49.500;7.764;2023-01-25T10:29:37;99997.53;;;-0.99;100.00
7433;BME280;32233;49.500;7.764;2023-01-25T10:32:12;99985.69;;;-0.89;100.00
7433;BME280;32233;49.500;7.764;2023-01-25T10:34:49;99985.22;;;-0.95;100.00
7433;BME280;32233;49.500;7.764;2023-01-25T10:37:31;99977.06;;;-0.89;100.00
7433;BME280;32233;49.500;7.764;2023-01-25T10:42:41;99961.28;;;-0.86;100.00
7433;BME280;32233;49.500;7.764;2023-01-25T10:45:13;99957.75;;;-1.00;100.00
7433;BME280;32233;49.500;7.764;2023-01-25T10:47:47;99952.50;;;-0.84;100.00
7433;BME280;32233;49.500;7.764;2023-01-25T10:53:30;99947.94;;;-0.52;100.00
7433;BME280;32233;49.500;7.764;2023-01-25T10:58:39;99936.63;;;-0.79;100.00
7433;BME280;32233;49.500;7.764;2023-01-25T11:01:09;99930.34;;;-0.61;100.00
7433;BME280;32233;49.500;7.764;2023-01-25T11:03:42;99929.03;;;-0.68;100.00
7433;BME280;32233;49.500;7.764;2023-01-25T11:06:11;99924.69;;;-0.96;100.00
7433;BME280;32233;49.500;7.764;2023-01-25T11:08:40;99917.00;;;-0.69;100.00
7433;BME280;32233;49.500;7.764;2023-01-25T11:11:21;99908.00;;;-0.78;100.00
7433;BME280;32233;49.500;7.764;2023-01-25T11:13:50;99910.22;;;-0.86;100.00
7433;BME280;32233;49.500;7.764;2023-01-25T11:16:29;99908.09;;;-0.65;100.00
7433;BME280;32233;49.500;7.764;2023-01-25T11:18:58;99909.84;;;-0.80;100.00
7433;BME280;32233;49.500;7.764;2023-01-25T11:21:27;99910.78;;;-1.09;100.00
7433;BME280;32233;49.500;7.764;2023-01-25T11:26:24;99901.78;;;-1.04;100.00
7433;BME280;32233;49.500;7.764;2023-01-25T11:29:15;99895.66;;;-1.03;100.00
7433;BME280;32233;49.500;7.764;2023-01-25T11:31:44;99887.69;;;-1.00;100.00
7433;BME280;32233;49.500;7.764;2023-01-25T11:34:17;99876.84;;;-0.78;100.00
7433;BME280;32233;49.500;7.764;2023-01-25T11:45:07;99860.16;;;-0.88;100.00
7433;BME280;32233;49.500;7.764;2023-01-25T11:50:11;99858.75;;;-1.08;100.00
7433;BME280;32233;49.500;7.764;2023-01-25T12:03:32;99825.00;;;-0.79;100.00
7433;BME280;32233;49.500;7.764;2023-01-25T12:06:16;99834.53;;;-0.80;100.00
7433;BME280;32233;49.500;7.764;2023-01-25T12:09:02;99833.84;;;-1.10;100.00
7433;BME280;32233;49.500;7.764;2023-01-25T12:31:08;99785.66;;;-1.14;100.00
7433;BME280;32233;49.500;7.764;2023-01-25T12:33:48;99786.38;;;-0.98;100.00
7433;BME280;32233;49.500;7.764;2023-01-25T12:36:39;99783.69;;;-0.96;100.00
7433;BME280;32233;49.500;7.764;2023-01-25T12:39:17;99773.34;;;-1.25;100.00
7433;BME280;32233;49.500;7.764;2023-01-25T12:42:07;99766.91;;;-1.05;100.00
7433;BME280;32233;49.500;7.764;2023-01-25T12:44:42;99767.28;;;-0.97;100.00
7433;BME280;32233;49.500;7.764;2023-01-25T12:47:32;99765.72;;;-1.14;100.00
7433;BME280;32233;49.500;7.764;2023-01-25T12:55:32;99750.47;;;-0.91;100.00
7433;BME280;32233;49.500;7.764;2023-01-25T12:58:18;99750.59;;;-1.07;100.00
7433;BME280;32233;49.500;7.764;2023-01-25T13:06:21;99724.97;;;-1.26;100.00
7433;BME280;32233;49.500;7.764;2023-01-25T13:11:36;99718.78;;;-0.96;100.00
7433;BME280;32233;49.500;7.764;2023-01-25T13:16:49;99718.69;;;-0.95;100.00
7433;BME280;32233;49.500;7.764;2023-01-25T13:22:01;99706.97;;;-1.15;100.00
7433;BME280;32233;49.500;7.764;2023-01-25T13:24:30;99710.00;;;-0.94;100.00
7433;BME280;32233;49.500;7.764;2023-01-25T13:29:54;99701.41;;;-1.09;100.00
7433;BME280;32233;49.500;7.764;2023-01-25T13:37:25;99693.91;;;-0.86;100.00
7433;BME280;32233;49.500;7.764;2023-01-25T13:40:44;99690.28;;;-0.84;100.00
7433;BME280;32233;49.500;7.764;2023-01-25T13:42:58;99682.00;;;-0.76;100.00
7433;BME280;32233;49.500;7.764;2023-01-25T13:45:25;99665.16;;;1.42;100.00
7433;BME280;32233;49.500;7.764;2023-01-25T13:48:20;99666.22;;;-0.20;100.00
7433;BME280;32233;49.500;7.764;2023-01-25T13:50:54;99666.91;;;-0.84;100.00
7433;BME280;32233;49.500;7.764;2023-01-25T13:53:24;99673.19;;;-0.73;100.00
7433;BME280;32233;49.500;7.764;2023-01-25T13:55:58;99668.59;;;-1.10;100.00
7433;BME280;32233;49.500;7.764;2023-01-25T13:58:34;99665.34;;;-0.86;100.00
7433;BME280;32233;49.500;7.764;2023-01-25T14:03:40;99659.47;;;-0.76;100.00
7433;BME280;32233;49.500;7.764;2023-01-25T14:06:15;99661.69;;;-0.96;100.00
7433;BME280;32233;49.500;7.764;2023-01-25T14:08:44;99663.25;;;-1.21;100.00
7433;BME280;32233;49.500;7.764;2023-01-25T14:11:23;99656.81;;;-1.15;100.00
7433;BME280;32233;49.500;7.764;2023-01-25T14:14:02;99652.44;;;-1.01;100.00
7433;BME280;32233;49.500;7.764;2023-01-25T14:16:39;99655.25;;;-0.91;100.00
7433;BME280;32233;49.500;7.764;2023-01-25T14:19:23;99646.03;;;-0.82;100.00
7433;BME280;32233;49.500;7.764;2023-01-25T14:22:19;99650.72;;;-1.14;100.00
7433;BME280;32233;49.500;7.764;2023-01-25T14:27:30;99638.66;;;-1.15;100.00
7433;BME280;32233;49.500;7.764;2023-01-25T14:29:56;99638.72;;;-1.03;100.00
7433;BME280;32233;49.500;7.764;2023-01-25T14:32:25;99623.88;;;-1.01;100.00
7433;BME280;32233;49.500;7.764;2023-01-25T14:34:52;99623.25;;;-1.04;100.00
7433;BME280;32233;49.500;7.764;2023-01-25T14:37:20;99619.50;;;-1.27;100.00
7433;BME280;32233;49.500;7.764;2023-01-25T14:39:48;99628.00;;;-1.38;100.00
7433;BME280;32233;49.500;7.764;2023-01-25T14:42:17;99620.47;;;-1.28;100.00
7433;BME280;32233;49.500;7.764;2023-01-25T14:44:44;99617.53;;;-1.09;100.00
7433;BME280;32233;49.500;7.764;2023-01-25T14:47:30;99606.16;;;-1.21;100.00
7433;BME280;32233;49.500;7.764;2023-01-25T14:53:23;99611.50;;;-1.37;100.00
7433;BME280;32233;49.500;7.764;2023-01-25T14:55:50;99605.03;;;-1.44;100.00
7433;BME280;32233;49.500;7.764;2023-01-25T14:58:20;99603.34;;;-1.31;100.00
7433;BME280;32233;49.500;7.764;2023-01-25T15:00:52;99604.34;;;-1.33;100.00
7433;BME280;32233;49.500;7.764;2023-01-25T15:03:19;99600.09;;;-1.34;100.00
7433;BME280;32233;49.500;7.764;2023-01-25T15:05:48;99593.44;;;-1.11;100.00